sensor_id;sensor_type;location;lat;lon;timestamp;P1;durP1;ratioP1;P2;durP2;ratioP2
10805;SDS011;5455;53.224;6.000;2022-11-15T00:01:09;15.37;;;10.27;;
10805;SDS011;5455;53.224;6.000;2022-11-15T00:04:04;14.50;;;10.03;;
10805;SDS011;5455;53.224;6.000;2022-11-15T00:06:54;15.97;;;9.87;;
10805;SDS011;5455;53.224;6.000;2022-11-15T00:09:39;14.27;;;10.17;;
10805;SDS011;5455;53.224;6.000;2022-11-15T00:12:29;14.50;;;10.03;;
10805;SDS011;5455;53.224;6.000;2022-11-15T00:15:15;14.43;;;9.63;;
10805;SDS011;5455;53.224;6.000;2022-11-15T00:18:00;16.03;;;9.80;;
10805;SDS011;5455;53.224;6.000;2022-11-15T00:20:52;13.27;;;9.30;;
10805;SDS011;5455;53.224;6.000;2022-11-15T00:23:38;15.87;;;10.10;;
10805;SDS011;5455;53.224;6.000;2022-11-15T00:26:31;14.17;;;9.53;;
10805;SDS011;5455;53.224;6.000;2022-11-15T00:29:16;14.53;;;9.63;;
10805;SDS011;5455;53.224;6.000;2022-11-15T00:32:02;15.70;;;9.80;;
10805;SDS011;5455;53.224;6.000;2022-11-15T00:34:47;15.97;;;10.47;;
10805;SDS011;5455;53.224;6.000;2022-11-15T00:37:32;13.33;;;9.20;;
10805;SDS011;5455;53.224;6.000;2022-11-15T00:40:18;15.57;;;10.23;;
10805;SDS011;5455;53.224;6.000;2022-11-15T00:43:03;12.73;;;8.87;;
10805;SDS011;5455;53.224;6.000;2022-11-15T00:45:49;14.87;;;9.30;;
10805;SDS011;5455;53.224;6.000;2022-11-15T00:48:34;13.93;;;9.03;;
10805;SDS011;5455;53.224;6.000;2022-11-15T00:51:19;15.63;;;9.73;;
10805;SDS011;5455;53.224;6.000;2022-11-15T00:54:05;14.33;;;9.23;;
10805;SDS011;5455;53.224;6.000;2022-11-15T00:56:50;13.27;;;9.30;;
10805;SDS011;5455;53.224;6.000;2022-11-15T00:59:35;14.53;;;9.50;;
10805;SDS011;5455;53.224;6.000;2022-11-15T01:02:21;12.40;;;8.07;;
10805;SDS011;5455;53.224;6.000;2022-11-15T01:05:07;13.93;;;9.30;;
10805;SDS011;5455;53.224;6.000;2022-11-15T01:07:55;13.60;;;9.33;;
10805;SDS011;5455;53.224;6.000;2022-11-15T01:10:41;13.43;;;8.00;;
10805;SDS011;5455;53.224;6.000;2022-11-15T01:13:28;12.93;;;9.53;;
10805;SDS011;5455;53.224;6.000;2022-11-15T01:16:16;14.20;;;9.47;;
10805;SDS011;5455;53.224;6.000;2022-11-15T01:19:03;13.17;;;9.03;;
10805;SDS011;5455;53.224;6.000;2022-11-15T01:21:48;13.67;;;9.03;;
10805;SDS011;5455;53.224;6.000;2022-11-15T01:24:35;11.87;;;8.33;;
10805;SDS011;5455;53.224;6.000;2022-11-15T01:27:20;12.43;;;8.00;;
10805;SDS011;5455;53.224;6.000;2022-11-15T01:30:06;14.50;;;9.90;;
10805;SDS011;5455;53.224;6.000;2022-11-15T01:32:53;13.97;;;8.60;;
10805;SDS011;5455;53.224;6.000;2022-11-15T01:35:38;14.37;;;8.63;;
10805;SDS011;5455;53.224;6.000;2022-11-15T01:38:25;14.63;;;10.10;;
10805;SDS011;5455;53.224;6.000;2022-11-15T01:41:17;14.77;;;10.20;;
10805;SDS011;5455;53.224;6.000;2022-11-15T01:47:20;13.40;;;8.67;;
10805;SDS011;5455;53.224;6.000;2022-11-15T01:50:10;16.07;;;9.40;;
10805;SDS011;5455;53.224;6.000;2022-11-15T01:52:59;17.33;;;10.33;;
10805;SDS011;5455;53.224;6.000;2022-11-15T01:55:44;13.57;;;9.43;;
10805;SDS011;5455;53.224;6.000;2022-11-15T01:58:30;14.37;;;9.10;;
10805;SDS011;5455;53.224;6.000;2022-11-15T02:01:15;11.27;;;7.67;;
10805;SDS011;5455;53.224;6.000;2022-11-15T02:04:02;12.33;;;8.90;;
10805;SDS011;5455;53.224;6.000;2022-11-15T02:06:52;13.37;;;8.10;;
10805;SDS011;5455;53.224;6.000;2022-11-15T02:09:39;13.63;;;7.97;;
10805;SDS011;5455;53.224;6.000;2022-11-15T02:12:24;14.73;;;9.17;;
10805;SDS011;5455;53.224;6.000;2022-11-15T02:15:10;14.47;;;8.97;;
10805;SDS011;5455;53.224;6.000;2022-11-15T02:18:11;16.40;;;8.93;;
10805;SDS011;5455;53.224;6.000;2022-11-15T02:21:28;15.63;;;10.23;;
10805;SDS011;5455;53.224;6.000;2022-11-15T02:24:48;15.10;;;9.67;;
10805;SDS011;5455;53.224;6.000;2022-11-15T02:27:43;14.80;;;9.20;;
10805;SDS011;5455;53.224;6.000;2022-11-15T02:43:11;12.70;;;8.10;;
10805;SDS011;5455;53.224;6.000;2022-11-15T02:49:57;14.30;;;8.67;;
10805;SDS011;5455;53.224;6.000;2022-11-15T02:52:46;14.63;;;9.27;;
10805;SDS011;5455;53.224;6.000;2022-11-15T02:55:34;16.10;;;9.07;;
10805;SDS011;5455;53.224;6.000;2022-11-15T03:07:04;15.97;;;9.80;;
10805;SDS011;5455;53.224;6.000;2022-11-15T03:12:46;15.50;;;9.13;;
10805;SDS011;5455;53.224;6.000;2022-11-15T03:15:44;15.77;;;10.13;;
10805;SDS011;5455;53.224;6.000;2022-11-15T03:18:38;14.40;;;8.57;;
10805;SDS011;5455;53.224;6.000;2022-11-15T03:21:28;16.93;;;10.00;;
10805;SDS011;5455;53.224;6.000;2022-11-15T03:24:15;17.67;;;9.37;;
10805;SDS011;5455;53.224;6.000;2022-11-15T03:27:09;17.00;;;9.87;;
10805;SDS011;5455;53.224;6.000;2022-11-15T03:30:03;22.00;;;9.90;;
10805;SDS011;5455;53.224;6.000;2022-11-15T03:32:53;16.30;;;9.73;;
10805;SDS011;5455;53.224;6.000;2022-11-15T03:35:42;17.77;;;9.93;;
10805;SDS011;5455;53.224;6.000;2022-11-15T03:38:29;18.50;;;9.70;;
10805;SDS011;5455;53.224;6.000;2022-11-15T03:41:21;19.50;;;10.53;;
10805;SDS011;5455;53.224;6.000;2022-11-15T03:47:32;18.90;;;9.97;;
10805;SDS011;5455;53.224;6.000;2022-11-15T03:50:21;18.23;;;10.07;;
10805;SDS011;5455;53.224;6.000;2022-11-15T03:53:09;17.97;;;9.47;;
10805;SDS011;5455;53.224;6.000;2022-11-15T03:55:54;19.97;;;9.87;;
10805;SDS011;5455;53.224;6.000;2022-11-15T03:58:40;20.30;;;10.63;;
10805;SDS011;5455;53.224;6.000;2022-11-15T04:01:25;20.43;;;10.70;;
10805;SDS011;5455;53.224;6.000;2022-11-15T04:04:11;22.57;;;10.63;;
10805;SDS011;5455;53.224;6.000;2022-11-15T04:06:56;19.30;;;9.83;;
10805;SDS011;5455;53.224;6.000;2022-11-15T04:09:41;20.30;;;10.57;;
10805;SDS011;5455;53.224;6.000;2022-11-15T04:12:45;26.47;;;11.40;;
10805;SDS011;5455;53.224;6.000;2022-11-15T04:15:33;19.47;;;10.57;;
10805;SDS011;5455;53.224;6.000;2022-11-15T04:18:19;22.77;;;10.97;;
10805;SDS011;5455;53.224;6.000;2022-11-15T04:21:04;19.07;;;10.20;;
10805;SDS011;5455;53.224;6.000;2022-11-15T04:24:09;23.63;;;11.17;;
10805;SDS011;5455;53.224;6.000;2022-11-15T04:26:59;20.97;;;10.77;;
10805;SDS011;5455;53.224;6.000;2022-11-15T04:29:45;23.20;;;11.10;;
10805;SDS011;5455;53.224;6.000;2022-11-15T04:32:30;22.80;;;10.17;;
10805;SDS011;5455;53.224;6.000;2022-11-15T04:35:16;21.77;;;10.50;;
10805;SDS011;5455;53.224;6.000;2022-11-15T04:38:01;21.63;;;11.50;;
10805;SDS011;5455;53.224;6.000;2022-11-15T04:40:48;20.57;;;11.03;;
10805;SDS011;5455;53.224;6.000;2022-11-15T04:43:34;19.40;;;10.83;;
10805;SDS011;5455;53.224;6.000;2022-11-15T04:46:20;21.17;;;10.73;;
10805;SDS011;5455;53.224;6.000;2022-11-15T04:49:05;21.00;;;11.17;;
10805;SDS011;5455;53.224;6.000;2022-11-15T04:51:51;19.13;;;10.63;;
10805;SDS011;5455;53.224;6.000;2022-11-15T04:54:36;19.70;;;9.93;;
10805;SDS011;5455;53.224;6.000;2022-11-15T04:57:21;22.93;;;10.87;;
10805;SDS011;5455;53.224;6.000;2022-11-15T05:00:08;20.93;;;10.27;;
10805;SDS011;5455;53.224;6.000;2022-11-15T05:02:55;19.77;;;10.23;;
10805;SDS011;5455;53.224;6.000;2022-11-15T05:06:00;23.33;;;10.57;;
10805;SDS011;5455;53.224;6.000;2022-11-15T05:08:46;24.03;;;11.13;;
10805;SDS011;5455;53.224;6.000;2022-11-15T05:11:31;19.00;;;10.00;;
10805;SDS011;5455;53.224;6.000;2022-11-15T05:14:16;25.43;;;10.00;;
10805;SDS011;5455;53.224;6.000;2022-11-15T05:17:02;23.07;;;11.33;;
10805;SDS011;5455;53.224;6.000;2022-11-15T05:19:47;19.70;;;11.13;;
10805;SDS011;5455;53.224;6.000;2022-11-15T05:22:33;20.80;;;10.63;;
10805;SDS011;5455;53.224;6.000;2022-11-15T05:25:18;19.93;;;10.17;;
10805;SDS011;5455;53.224;6.000;2022-11-15T05:28:03;27.83;;;11.23;;
10805;SDS011;5455;53.224;6.000;2022-11-15T05:30:49;19.73;;;10.30;;
10805;SDS011;5455;53.224;6.000;2022-11-15T05:33:35;21.93;;;11.30;;
10805;SDS011;5455;53.224;6.000;2022-11-15T05:39:13;22.73;;;11.33;;
10805;SDS011;5455;53.224;6.000;2022-11-15T05:42:04;23.60;;;11.43;;
10805;SDS011;5455;53.224;6.000;2022-11-15T05:44:55;18.87;;;9.63;;
10805;SDS011;5455;53.224;6.000;2022-11-15T05:47:42;19.80;;;10.33;;
10805;SDS011;5455;53.224;6.000;2022-11-15T05:50:29;19.07;;;11.23;;
10805;SDS011;5455;53.224;6.000;2022-11-15T05:53:16;21.07;;;11.10;;
10805;SDS011;5455;53.224;6.000;2022-11-15T05:56:04;20.87;;;10.77;;
10805;SDS011;5455;53.224;6.000;2022-11-15T05:58:54;22.90;;;11.03;;
10805;SDS011;5455;53.224;6.000;2022-11-15T06:01:44;20.83;;;11.93;;
10805;SDS011;5455;53.224;6.000;2022-11-15T06:04:29;21.17;;;11.13;;
10805;SDS011;5455;53.224;6.000;2022-11-15T06:07:15;19.50;;;11.23;;
10805;SDS011;5455;53.224;6.000;2022-11-15T06:10:01;18.37;;;10.83;;
10805;SDS011;5455;53.224;6.000;2022-11-15T06:12:46;22.70;;;11.70;;
10805;SDS011;5455;53.224;6.000;2022-11-15T06:15:32;19.70;;;11.33;;
10805;SDS011;5455;53.224;6.000;2022-11-15T06:18:19;23.00;;;12.33;;
10805;SDS011;5455;53.224;6.000;2022-11-15T06:21:05;23.10;;;11.23;;
10805;SDS011;5455;53.224;6.000;2022-11-15T06:23:51;25.83;;;11.17;;
10805;SDS011;5455;53.224;6.000;2022-11-15T06:26:36;28.23;;;12.47;;
10805;SDS011;5455;53.224;6.000;2022-11-15T06:29:22;20.57;;;10.87;;
10805;SDS011;5455;53.224;6.000;2022-11-15T06:32:07;20.43;;;11.13;;
10805;SDS011;5455;53.224;6.000;2022-11-15T06:34:53;24.47;;;11.40;;
10805;SDS011;5455;53.224;6.000;2022-11-15T06:37:38;21.90;;;11.87;;
10805;SDS011;5455;53.224;6.000;2022-11-15T06:40:24;22.40;;;11.10;;
10805;SDS011;5455;53.224;6.000;2022-11-15T06:43:09;19.57;;;10.20;;
10805;SDS011;5455;53.224;6.000;2022-11-15T06:45:54;26.93;;;11.60;;
10805;SDS011;5455;53.224;6.000;2022-11-15T06:48:39;17.53;;;9.40;;
10805;SDS011;5455;53.224;6.000;2022-11-15T06:51:25;21.73;;;11.50;;
10805;SDS011;5455;53.224;6.000;2022-11-15T06:54:11;19.60;;;11.30;;
10805;SDS011;5455;53.224;6.000;2022-11-15T06:56:56;16.97;;;9.17;;
10805;SDS011;5455;53.224;6.000;2022-11-15T06:59:41;17.67;;;9.10;;
10805;SDS011;5455;53.224;6.000;2022-11-15T07:02:26;20.30;;;10.23;;
10805;SDS011;5455;53.224;6.000;2022-11-15T07:05:12;20.47;;;10.53;;
10805;SDS011;5455;53.224;6.000;2022-11-15T07:07:58;18.87;;;10.90;;
10805;SDS011;5455;53.224;6.000;2022-11-15T07:10:44;19.10;;;11.13;;
10805;SDS011;5455;53.224;6.000;2022-11-15T07:13:30;20.27;;;10.87;;
10805;SDS011;5455;53.224;6.000;2022-11-15T07:16:20;20.40;;;10.40;;
10805;SDS011;5455;53.224;6.000;2022-11-15T07:19:06;21.67;;;10.67;;
10805;SDS011;5455;53.224;6.000;2022-11-15T07:21:53;19.83;;;10.73;;
10805;SDS011;5455;53.224;6.000;2022-11-15T07:24:39;24.63;;;11.87;;
10805;SDS011;5455;53.224;6.000;2022-11-15T07:27:24;19.37;;;10.27;;
10805;SDS011;5455;53.224;6.000;2022-11-15T07:30:10;19.37;;;10.53;;
10805;SDS011;5455;53.224;6.000;2022-11-15T07:33:00;18.50;;;10.67;;
10805;SDS011;5455;53.224;6.000;2022-11-15T07:35:46;22.33;;;11.57;;
10805;SDS011;5455;53.224;6.000;2022-11-15T07:38:35;20.33;;;10.93;;
10805;SDS011;5455;53.224;6.000;2022-11-15T07:41:27;22.13;;;11.77;;
10805;SDS011;5455;53.224;6.000;2022-11-15T07:44:13;24.10;;;11.20;;
10805;SDS011;5455;53.224;6.000;2022-11-15T07:46:59;19.20;;;10.03;;
10805;SDS011;5455;53.224;6.000;2022-11-15T07:49:44;19.37;;;11.13;;
10805;SDS011;5455;53.224;6.000;2022-11-15T07:52:31;16.53;;;9.50;;
10805;SDS011;5455;53.224;6.000;2022-11-15T07:55:16;17.73;;;9.63;;
10805;SDS011;5455;53.224;6.000;2022-11-15T07:58:03;19.13;;;9.87;;
10805;SDS011;5455;53.224;6.000;2022-11-15T08:00:52;16.40;;;9.63;;
10805;SDS011;5455;53.224;6.000;2022-11-15T08:03:38;16.20;;;9.83;;
10805;SDS011;5455;53.224;6.000;2022-11-15T08:06:24;15.90;;;10.13;;
10805;SDS011;5455;53.224;6.000;2022-11-15T08:09:09;15.97;;;10.07;;
10805;SDS011;5455;53.224;6.000;2022-11-15T08:11:55;17.90;;;9.80;;
10805;SDS011;5455;53.224;6.000;2022-11-15T08:14:40;17.73;;;9.80;;
10805;SDS011;5455;53.224;6.000;2022-11-15T08:17:25;16.87;;;9.73;;
10805;SDS011;5455;53.224;6.000;2022-11-15T08:20:11;18.50;;;9.63;;
10805;SDS011;5455;53.224;6.000;2022-11-15T08:22:59;15.03;;;8.90;;
10805;SDS011;5455;53.224;6.000;2022-11-15T08:25:46;16.80;;;8.73;;
10805;SDS011;5455;53.224;6.000;2022-11-15T08:28:32;16.60;;;9.57;;
10805;SDS011;5455;53.224;6.000;2022-11-15T08:31:17;14.57;;;8.80;;
10805;SDS011;5455;53.224;6.000;2022-11-15T08:34:04;15.37;;;7.90;;
10805;SDS011;5455;53.224;6.000;2022-11-15T08:36:50;16.37;;;8.50;;
10805;SDS011;5455;53.224;6.000;2022-11-15T08:39:35;12.77;;;8.83;;
10805;SDS011;5455;53.224;6.000;2022-11-15T08:42:21;14.13;;;8.70;;
10805;SDS011;5455;53.224;6.000;2022-11-15T08:45:07;14.40;;;8.77;;
10805;SDS011;5455;53.224;6.000;2022-11-15T08:47:53;14.70;;;9.20;;
10805;SDS011;5455;53.224;6.000;2022-11-15T08:50:39;11.87;;;7.90;;
10805;SDS011;5455;53.224;6.000;2022-11-15T08:53:24;15.17;;;9.03;;
10805;SDS011;5455;53.224;6.000;2022-11-15T08:56:10;13.80;;;8.67;;
10805;SDS011;5455;53.224;6.000;2022-11-15T08:58:57;16.50;;;8.87;;
10805;SDS011;5455;53.224;6.000;2022-11-15T09:01:42;14.10;;;8.53;;
10805;SDS011;5455;53.224;6.000;2022-11-15T09:04:28;14.67;;;8.80;;
10805;SDS011;5455;53.224;6.000;2022-11-15T09:07:13;12.77;;;8.73;;
10805;SDS011;5455;53.224;6.000;2022-11-15T09:09:59;13.80;;;8.60;;
10805;SDS011;5455;53.224;6.000;2022-11-15T09:12:45;15.47;;;10.13;;
10805;SDS011;5455;53.224;6.000;2022-11-15T09:15:33;14.47;;;9.00;;
10805;SDS011;5455;53.224;6.000;2022-11-15T09:18:19;13.23;;;9.00;;
10805;SDS011;5455;53.224;6.000;2022-11-15T09:21:07;15.00;;;7.83;;
10805;SDS011;5455;53.224;6.000;2022-11-15T09:23:53;13.57;;;8.67;;
10805;SDS011;5455;53.224;6.000;2022-11-15T09:26:38;12.80;;;8.00;;
10805;SDS011;5455;53.224;6.000;2022-11-15T09:29:24;12.43;;;7.30;;
10805;SDS011;5455;53.224;6.000;2022-11-15T09:32:09;13.63;;;8.63;;
10805;SDS011;5455;53.224;6.000;2022-11-15T09:34:55;15.63;;;8.00;;
10805;SDS011;5455;53.224;6.000;2022-11-15T09:37:41;12.50;;;8.50;;
10805;SDS011;5455;53.224;6.000;2022-11-15T09:40:26;17.97;;;8.87;;
10805;SDS011;5455;53.224;6.000;2022-11-15T09:49:03;12.80;;;7.57;;
10805;SDS011;5455;53.224;6.000;2022-11-15T09:52:03;16.00;;;8.77;;
10805;SDS011;5455;53.224;6.000;2022-11-15T10:03:09;12.77;;;7.70;;
10805;SDS011;5455;53.224;6.000;2022-11-15T10:05:51;12.93;;;7.17;;
10805;SDS011;5455;53.224;6.000;2022-11-15T10:11:28;14.60;;;8.10;;
10805;SDS011;5455;53.224;6.000;2022-11-15T10:16:56;11.13;;;6.37;;
10805;SDS011;5455;53.224;6.000;2022-11-15T10:19:54;14.37;;;7.80;;
10805;SDS011;5455;53.224;6.000;2022-11-15T10:27:35;10.73;;;7.07;;
10805;SDS011;5455;53.224;6.000;2022-11-15T10:30:03;17.77;;;7.70;;
10805;SDS011;5455;53.224;6.000;2022-11-15T10:32:37;10.93;;;7.03;;
10805;SDS011;5455;53.224;6.000;2022-11-15T10:35:17;12.53;;;7.17;;
10805;SDS011;5455;53.224;6.000;2022-11-15T10:37:50;10.57;;;7.13;;
10805;SDS011;5455;53.224;6.000;2022-11-15T10:40:21;11.97;;;7.53;;
10805;SDS011;5455;53.224;6.000;2022-11-15T10:43:13;11.13;;;6.93;;
10805;SDS011;5455;53.224;6.000;2022-11-15T10:45:36;10.83;;;6.20;;
10805;SDS011;5455;53.224;6.000;2022-11-15T10:50:41;9.27;;;6.20;;
10805;SDS011;5455;53.224;6.000;2022-11-15T10:53:32;11.53;;;6.90;;
10805;SDS011;5455;53.224;6.000;2022-11-15T10:56:07;11.00;;;6.07;;
10805;SDS011;5455;53.224;6.000;2022-11-15T10:58:39;10.90;;;6.73;;
10805;SDS011;5455;53.224;6.000;2022-11-15T11:01:12;9.63;;;6.57;;
10805;SDS011;5455;53.224;6.000;2022-11-15T11:03:39;11.10;;;6.03;;
10805;SDS011;5455;53.224;6.000;2022-11-15T11:06:12;10.90;;;6.23;;
10805;SDS011;5455;53.224;6.000;2022-11-15T11:08:56;12.53;;;6.23;;
10805;SDS011;5455;53.224;6.000;2022-11-15T11:11:25;9.87;;;6.83;;
10805;SDS011;5455;53.224;6.000;2022-11-15T11:14:19;9.53;;;6.20;;
10805;SDS011;5455;53.224;6.000;2022-11-15T11:17:04;11.47;;;6.40;;
10805;SDS011;5455;53.224;6.000;2022-11-15T11:22:22;10.13;;;6.40;;
10805;SDS011;5455;53.224;6.000;2022-11-15T11:25:18;11.53;;;6.27;;
10805;SDS011;5455;53.224;6.000;2022-11-15T11:28:14;9.10;;;5.77;;
10805;SDS011;5455;53.224;6.000;2022-11-15T11:42:26;11.23;;;6.30;;
10805;SDS011;5455;53.224;6.000;2022-11-15T11:45:05;10.60;;;6.67;;
10805;SDS011;5455;53.224;6.000;2022-11-15T11:47:39;7.13;;;5.57;;
10805;SDS011;5455;53.224;6.000;2022-11-15T11:50:29;8.67;;;5.70;;
10805;SDS011;5455;53.224;6.000;2022-11-15T11:52:57;8.97;;;5.67;;
10805;SDS011;5455;53.224;6.000;2022-11-15T11:55:34;12.40;;;5.97;;
10805;SDS011;5455;53.224;6.000;2022-11-15T12:00:47;10.00;;;5.80;;
10805;SDS011;5455;53.224;6.000;2022-11-15T12:03:22;9.03;;;4.90;;
10805;SDS011;5455;53.224;6.000;2022-11-15T12:06:24;7.87;;;4.77;;
10805;SDS011;5455;53.224;6.000;2022-11-15T12:12:11;9.20;;;4.47;;
10805;SDS011;5455;53.224;6.000;2022-11-15T12:14:51;5.67;;;3.70;;
10805;SDS011;5455;53.224;6.000;2022-11-15T12:17:25;7.33;;;3.83;;
10805;SDS011;5455;53.224;6.000;2022-11-15T12:19:59;6.13;;;3.37;;
10805;SDS011;5455;53.224;6.000;2022-11-15T12:25:07;8.00;;;3.70;;
10805;SDS011;5455;53.224;6.000;2022-11-15T12:27:43;5.83;;;3.30;;
10805;SDS011;5455;53.224;6.000;2022-11-15T12:30:15;6.27;;;3.70;;
10805;SDS011;5455;53.224;6.000;2022-11-15T12:32:55;5.27;;;3.07;;
10805;SDS011;5455;53.224;6.000;2022-11-15T12:35:34;5.00;;;2.90;;
10805;SDS011;5455;53.224;6.000;2022-11-15T12:38:04;5.80;;;3.23;;
10805;SDS011;5455;53.224;6.000;2022-11-15T12:40:39;7.70;;;3.60;;
10805;SDS011;5455;53.224;6.000;2022-11-15T12:43:44;4.47;;;3.07;;
10805;SDS011;5455;53.224;6.000;2022-11-15T12:46:21;4.80;;;2.90;;
10805;SDS011;5455;53.224;6.000;2022-11-15T12:49:01;4.57;;;2.80;;
10805;SDS011;5455;53.224;6.000;2022-11-15T13:02:25;2.67;;;2.27;;
10805;SDS011;5455;53.224;6.000;2022-11-15T13:08:01;3.53;;;2.17;;
10805;SDS011;5455;53.224;6.000;2022-11-15T13:10:29;3.77;;;2.20;;
10805;SDS011;5455;53.224;6.000;2022-11-15T13:13:02;3.80;;;2.47;;
10805;SDS011;5455;53.224;6.000;2022-11-15T13:15:35;4.73;;;2.73;;
10805;SDS011;5455;53.224;6.000;2022-11-15T13:18:26;4.87;;;2.50;;
10805;SDS011;5455;53.224;6.000;2022-11-15T13:20:57;3.07;;;2.13;;
10805;SDS011;5455;53.224;6.000;2022-11-15T13:23:28;3.57;;;1.80;;
10805;SDS011;5455;53.224;6.000;2022-11-15T13:26:14;4.17;;;2.03;;
10805;SDS011;5455;53.224;6.000;2022-11-15T13:28:45;3.63;;;1.97;;
10805;SDS011;5455;53.224;6.000;2022-11-15T13:31:26;2.43;;;1.60;;
10805;SDS011;5455;53.224;6.000;2022-11-15T13:33:57;2.60;;;1.53;;
10805;SDS011;5455;53.224;6.000;2022-11-15T13:36:28;2.43;;;1.50;;
10805;SDS011;5455;53.224;6.000;2022-11-15T13:41:36;3.73;;;2.07;;
10805;SDS011;5455;53.224;6.000;2022-11-15T13:47:01;2.30;;;1.60;;
10805;SDS011;5455;53.224;6.000;2022-11-15T13:49:46;2.00;;;1.53;;
10805;SDS011;5455;53.224;6.000;2022-11-15T13:52:14;4.73;;;1.73;;
10805;SDS011;5455;53.224;6.000;2022-11-15T13:57:24;3.03;;;1.50;;
10805;SDS011;5455;53.224;6.000;2022-11-15T14:00:30;4.27;;;1.40;;
10805;SDS011;5455;53.224;6.000;2022-11-15T14:03:21;3.20;;;1.50;;
10805;SDS011;5455;53.224;6.000;2022-11-15T14:08:33;3.50;;;1.30;;
10805;SDS011;5455;53.224;6.000;2022-11-15T14:13:59;3.00;;;1.53;;
10805;SDS011;5455;53.224;6.000;2022-11-15T14:16:41;1.17;;;1.07;;
10805;SDS011;5455;53.224;6.000;2022-11-15T14:19:12;3.20;;;1.47;;
10805;SDS011;5455;53.224;6.000;2022-11-15T14:30:35;2.93;;;1.43;;
10805;SDS011;5455;53.224;6.000;2022-11-15T14:33:11;1.27;;;1.17;;
10805;SDS011;5455;53.224;6.000;2022-11-15T14:35:47;3.20;;;1.20;;
10805;SDS011;5455;53.224;6.000;2022-11-15T14:38:14;1.50;;;1.40;;
10805;SDS011;5455;53.224;6.000;2022-11-15T14:40:42;3.07;;;1.50;;
10805;SDS011;5455;53.224;6.000;2022-11-15T14:43:10;3.93;;;1.20;;
10805;SDS011;5455;53.224;6.000;2022-11-15T14:45:38;2.47;;;1.20;;
10805;SDS011;5455;53.224;6.000;2022-11-15T14:48:05;2.73;;;1.50;;
10805;SDS011;5455;53.224;6.000;2022-11-15T14:50:33;1.77;;;1.23;;
10805;SDS011;5455;53.224;6.000;2022-11-15T14:53:01;1.97;;;1.03;;
10805;SDS011;5455;53.224;6.000;2022-11-15T14:55:29;1.93;;;1.40;;
10805;SDS011;5455;53.224;6.000;2022-11-15T14:57:59;2.43;;;1.30;;
10805;SDS011;5455;53.224;6.000;2022-11-15T15:00:26;3.90;;;1.30;;
10805;SDS011;5455;53.224;6.000;2022-11-15T15:03:01;3.20;;;1.20;;
10805;SDS011;5455;53.224;6.000;2022-11-15T15:05:32;2.50;;;1.27;;
10805;SDS011;5455;53.224;6.000;2022-11-15T15:08:01;3.67;;;1.30;;
10805;SDS011;5455;53.224;6.000;2022-11-15T15:10:30;1.67;;;1.20;;
10805;SDS011;5455;53.224;6.000;2022-11-15T15:13:15;4.13;;;1.30;;
10805;SDS011;5455;53.224;6.000;2022-11-15T15:15:43;1.90;;;0.90;;
10805;SDS011;5455;53.224;6.000;2022-11-15T15:18:10;1.23;;;0.90;;
10805;SDS011;5455;53.224;6.000;2022-11-15T15:20:38;2.83;;;1.17;;
10805;SDS011;5455;53.224;6.000;2022-11-15T15:23:16;2.37;;;1.10;;
10805;SDS011;5455;53.224;6.000;2022-11-15T15:25:45;2.27;;;0.80;;
10805;SDS011;5455;53.224;6.000;2022-11-15T15:28:15;1.20;;;0.90;;
10805;SDS011;5455;53.224;6.000;2022-11-15T15:30:42;3.13;;;1.20;;
10805;SDS011;5455;53.224;6.000;2022-11-15T15:33:09;2.30;;;1.10;;
10805;SDS011;5455;53.224;6.000;2022-11-15T15:35:36;1.27;;;1.17;;
10805;SDS011;5455;53.224;6.000;2022-11-15T15:38:03;0.80;;;0.80;;
10805;SDS011;5455;53.224;6.000;2022-11-15T15:40:31;1.90;;;0.80;;
10805;SDS011;5455;53.224;6.000;2022-11-15T15:42:59;2.50;;;0.90;;
10805;SDS011;5455;53.224;6.000;2022-11-15T15:45:26;1.17;;;0.70;;
10805;SDS011;5455;53.224;6.000;2022-11-15T15:47:54;3.70;;;0.97;;
10805;SDS011;5455;53.224;6.000;2022-11-15T15:52:49;2.50;;;1.10;;
10805;SDS011;5455;53.224;6.000;2022-11-15T15:55:18;1.90;;;0.90;;
10805;SDS011;5455;53.224;6.000;2022-11-15T15:57:45;1.73;;;0.93;;
10805;SDS011;5455;53.224;6.000;2022-11-15T16:00:12;2.20;;;1.20;;
10805;SDS011;5455;53.224;6.000;2022-11-15T16:02:40;1.17;;;0.83;;
10805;SDS011;5455;53.224;6.000;2022-11-15T16:05:08;2.33;;;1.10;;
10805;SDS011;5455;53.224;6.000;2022-11-15T16:07:36;1.93;;;1.07;;
10805;SDS011;5455;53.224;6.000;2022-11-15T16:12:51;1.17;;;0.90;;
10805;SDS011;5455;53.224;6.000;2022-11-15T16:15:19;2.53;;;1.17;;
10805;SDS011;5455;53.224;6.000;2022-11-15T16:17:51;1.93;;;1.37;;
10805;SDS011;5455;53.224;6.000;2022-11-15T16:22:59;1.60;;;1.33;;
10805;SDS011;5455;53.224;6.000;2022-11-15T16:25:41;2.60;;;1.30;;
10805;SDS011;5455;53.224;6.000;2022-11-15T16:28:42;1.77;;;1.40;;
10805;SDS011;5455;53.224;6.000;2022-11-15T16:31:04;2.60;;;1.70;;
10805;SDS011;5455;53.224;6.000;2022-11-15T16:33:36;2.80;;;1.50;;
10805;SDS011;5455;53.224;6.000;2022-11-15T16:36:04;2.03;;;1.47;;
10805;SDS011;5455;53.224;6.000;2022-11-15T16:38:32;2.43;;;1.77;;
10805;SDS011;5455;53.224;6.000;2022-11-15T16:41:00;3.23;;;2.30;;
10805;SDS011;5455;53.224;6.000;2022-11-15T16:43:27;3.30;;;2.50;;
10805;SDS011;5455;53.224;6.000;2022-11-15T16:45:54;4.27;;;2.20;;
10805;SDS011;5455;53.224;6.000;2022-11-15T16:48:22;3.03;;;2.20;;
10805;SDS011;5455;53.224;6.000;2022-11-15T16:50:54;4.03;;;2.23;;
10805;SDS011;5455;53.224;6.000;2022-11-15T16:53:23;3.90;;;2.60;;
10805;SDS011;5455;53.224;6.000;2022-11-15T16:55:51;3.60;;;2.67;;
10805;SDS011;5455;53.224;6.000;2022-11-15T16:58:20;2.50;;;2.20;;
10805;SDS011;5455;53.224;6.000;2022-11-15T17:00:50;3.47;;;2.20;;
10805;SDS011;5455;53.224;6.000;2022-11-15T17:03:19;4.07;;;2.57;;
10805;SDS011;5455;53.224;6.000;2022-11-15T17:05:47;6.93;;;2.60;;
10805;SDS011;5455;53.224;6.000;2022-11-15T17:08:15;2.87;;;2.33;;
10805;SDS011;5455;53.224;6.000;2022-11-15T17:10:42;2.70;;;2.20;;
10805;SDS011;5455;53.224;6.000;2022-11-15T17:13:12;2.93;;;1.77;;
10805;SDS011;5455;53.224;6.000;2022-11-15T17:15:39;3.17;;;1.90;;
10805;SDS011;5455;53.224;6.000;2022-11-15T17:18:09;2.37;;;1.97;;
10805;SDS011;5455;53.224;6.000;2022-11-15T17:20:39;2.43;;;1.93;;
10805;SDS011;5455;53.224;6.000;2022-11-15T17:23:09;4.90;;;2.20;;
10805;SDS011;5455;53.224;6.000;2022-11-15T17:25:40;2.60;;;1.80;;
10805;SDS011;5455;53.224;6.000;2022-11-15T17:28:07;3.83;;;1.90;;
10805;SDS011;5455;53.224;6.000;2022-11-15T17:30:34;3.67;;;1.90;;
10805;SDS011;5455;53.224;6.000;2022-11-15T17:33:01;3.83;;;1.90;;
10805;SDS011;5455;53.224;6.000;2022-11-15T17:35:28;2.97;;;1.77;;
10805;SDS011;5455;53.224;6.000;2022-11-15T17:37:55;9.67;;;3.00;;
10805;SDS011;5455;53.224;6.000;2022-11-15T17:40:22;2.33;;;1.83;;
10805;SDS011;5455;53.224;6.000;2022-11-15T17:42:49;2.47;;;1.70;;
10805;SDS011;5455;53.224;6.000;2022-11-15T17:45:15;4.20;;;1.70;;
10805;SDS011;5455;53.224;6.000;2022-11-15T17:47:42;4.70;;;1.63;;
10805;SDS011;5455;53.224;6.000;2022-11-15T17:50:09;6.40;;;1.60;;
10805;SDS011;5455;53.224;6.000;2022-11-15T17:52:37;2.57;;;1.40;;
10805;SDS011;5455;53.224;6.000;2022-11-15T17:55:04;4.20;;;1.83;;
10805;SDS011;5455;53.224;6.000;2022-11-15T17:57:31;2.10;;;1.50;;
10805;SDS011;5455;53.224;6.000;2022-11-15T17:59:58;2.23;;;1.23;;
10805;SDS011;5455;53.224;6.000;2022-11-15T18:02:25;2.03;;;1.30;;
10805;SDS011;5455;53.224;6.000;2022-11-15T18:04:52;1.67;;;1.10;;
10805;SDS011;5455;53.224;6.000;2022-11-15T18:07:19;1.70;;;1.10;;
10805;SDS011;5455;53.224;6.000;2022-11-15T18:09:46;1.50;;;1.07;;
10805;SDS011;5455;53.224;6.000;2022-11-15T18:12:13;2.10;;;1.37;;
10805;SDS011;5455;53.224;6.000;2022-11-15T18:14:40;3.00;;;0.80;;
10805;SDS011;5455;53.224;6.000;2022-11-15T18:17:08;2.10;;;1.10;;
10805;SDS011;5455;53.224;6.000;2022-11-15T18:19:35;3.20;;;0.90;;
10805;SDS011;5455;53.224;6.000;2022-11-15T18:22:03;1.80;;;0.97;;
10805;SDS011;5455;53.224;6.000;2022-11-15T18:24:33;1.87;;;0.80;;